createdAt,value
2022-11-15T00:02:34.442Z,21.92
2022-11-15T00:05:20.824Z,22.38
2022-11-15T00:08:08.939Z,23.42
2022-11-15T00:10:59.080Z,23.23
2022-11-15T00:13:45.394Z,22.45
2022-11-15T00:16:31.752Z,22.65
2022-11-15T00:19:18.157Z,22.60
2022-11-15T00:22:04.393Z,21.90
2022-11-15T00:24:52.088Z,22.23
2022-11-15T00:27:38.467Z,21.65
2022-11-15T00:30:24.796Z,22.75
2022-11-15T00:33:11.545Z,22.48
2022-11-15T00:36:03.219Z,23.50
2022-11-15T00:38:49.682Z,23.50
2022-11-15T00:41:37.309Z,23.33
2022-11-15T00:44:23.701Z,22.30
2022-11-15T00:47:10.116Z,23.67
2022-11-15T00:49:56.396Z,22.38
2022-11-15T00:52:42.687Z,22.58
2022-11-15T00:55:29.135Z,21.95
2022-11-15T00:58:16.852Z,24.13
2022-11-15T01:01:11.730Z,23.02
2022-11-15T01:04:01.300Z,22.65
2022-11-15T01:06:48.182Z,23.02
2022-11-15T01:09:34.868Z,23.08
2022-11-15T01:12:21.549Z,24.45
2022-11-15T01:15:10.380Z,23.00
2022-11-15T01:17:57.009Z,23.33
2022-11-15T01:20:43.983Z,23.45
2022-11-15T01:23:30.893Z,23.42
2022-11-15T01:26:18.404Z,23.45
2022-11-15T01:29:05.206Z,22.85
2022-11-15T01:31:55.579Z,23.17
2022-11-15T01:34:42.213Z,22.80
2022-11-15T01:37:28.575Z,23.75
2022-11-15T01:40:15.196Z,23.27
2022-11-15T01:43:01.717Z,23.23
2022-11-15T01:45:53.288Z,24.13
2022-11-15T01:48:41.299Z,24.65
2022-11-15T01:51:33.210Z,21.25
2022-11-15T01:54:23.426Z,23.75
2022-11-15T01:57:12.447Z,23.13
2022-11-15T02:00:00.907Z,22.67
2022-11-15T02:02:47.279Z,24.05
2022-11-15T02:05:35.600Z,22.58
2022-11-15T02:08:22.140Z,23.17
2022-11-15T02:11:10.634Z,22.92
2022-11-15T02:13:57.794Z,23.45
2022-11-15T02:16:57.153Z,24.33
2022-11-15T02:20:16.393Z,22.88
2022-11-15T02:23:45.278Z,22.65
2022-11-15T02:27:13.197Z,22.83
2022-11-15T02:30:14.360Z,22.85
2022-11-15T02:33:06.189Z,22.80
2022-11-15T02:35:59.455Z,23.30
2022-11-15T02:38:54.133Z,24.67
2022-11-15T02:41:50.229Z,24.17
2022-11-15T02:44:41.451Z,23.58
2022-11-15T02:47:32.984Z,23.60
2022-11-15T02:50:22.594Z,23.73
2022-11-15T02:53:09.695Z,23.77
2022-11-15T02:55:58.651Z,24.52
2022-11-15T02:59:08.088Z,23.48
2022-11-15T03:02:10.911Z,24.23
2022-11-15T03:05:04.076Z,23.17
2022-11-15T03:08:02.092Z,23.67
2022-11-15T03:10:59.831Z,23.40
2022-11-15T03:13:55.126Z,23.73
2022-11-15T03:16:47.311Z,23.02
2022-11-15T03:19:39.766Z,24.75
2022-11-15T03:22:31.233Z,23.52
2022-11-15T03:25:21.587Z,25.20
2022-11-15T03:28:11.506Z,23.45
2022-11-15T03:30:58.939Z,22.65
2022-11-15T03:33:45.768Z,22.50
2022-11-15T03:36:35.316Z,22.17
2022-11-15T03:39:24.621Z,22.70
2022-11-15T03:42:22.566Z,22.52
2022-11-15T03:45:16.753Z,22.45
2022-11-15T03:48:08.454Z,23.90
2022-11-15T03:50:55.463Z,24.35
2022-11-15T03:53:43.283Z,21.88
2022-11-15T03:56:31.520Z,22.85
2022-11-15T03:59:18.196Z,22.90
2022-11-15T04:02:04.526Z,23.15
2022-11-15T04:04:51.108Z,23.67
2022-11-15T04:07:37.524Z,22.67
2022-11-15T04:10:24.345Z,22.85
2022-11-15T04:13:12.175Z,23.55
2022-11-15T04:15:58.826Z,23.00
2022-11-15T04:18:45.286Z,22.50
2022-11-15T04:21:48.885Z,22.33
2022-11-15T04:24:35.356Z,22.80
2022-11-15T04:27:21.698Z,23.17
2022-11-15T04:30:11.121Z,22.33
2022-11-15T04:32:57.746Z,22.70
2022-11-15T04:35:44.916Z,23.05
2022-11-15T04:38:30.211Z,22.73
2022-11-15T04:41:16.679Z,22.80
2022-11-15T04:44:02.984Z,21.17
2022-11-15T04:46:50.801Z,21.83
2022-11-15T04:49:37.405Z,23.50
2022-11-15T04:52:23.668Z,22.15
2022-11-15T04:55:10.491Z,22.67
2022-11-15T04:58:01.616Z,22.13
2022-11-15T05:00:48.387Z,21.05
2022-11-15T05:04:05.289Z,21.55
2022-11-15T05:06:53.590Z,21.23
2022-11-15T05:09:40.708Z,22.30
2022-11-15T05:12:26.953Z,21.73
2022-11-15T05:15:13.296Z,22.55
2022-11-15T05:18:01.249Z,21.80
2022-11-15T05:20:49.191Z,22.02
2022-11-15T05:23:35.921Z,21.90
2022-11-15T05:26:22.539Z,23.88
2022-11-15T05:29:12.388Z,22.25
2022-11-15T05:31:59.331Z,22.38
2022-11-15T05:34:45.912Z,21.55
2022-11-15T05:37:33.666Z,21.40
2022-11-15T05:40:20.115Z,21.90
2022-11-15T05:43:07.230Z,22.88
2022-11-15T05:45:53.557Z,22.35
2022-11-15T05:48:42.803Z,21.80
2022-11-15T05:51:31.392Z,21.67
2022-11-15T05:54:21.403Z,22.08
2022-11-15T05:57:08.043Z,21.33
2022-11-15T05:59:55.911Z,21.83
2022-11-15T06:02:42.138Z,21.45
2022-11-15T06:05:28.421Z,23.10
2022-11-15T06:08:14.795Z,22.73
2022-11-15T06:11:07.208Z,21.95
2022-11-15T06:13:53.490Z,22.05
2022-11-15T06:16:39.872Z,22.73
2022-11-15T06:19:26.453Z,22.50
2022-11-15T06:22:12.577Z,21.90
2022-11-15T06:25:04.082Z,21.90
2022-11-15T06:27:55.248Z,22.00
2022-11-15T06:30:41.897Z,22.08
2022-11-15T06:33:28.274Z,21.45
2022-11-15T06:36:17.918Z,21.77
2022-11-15T06:39:05.705Z,21.08
2022-11-15T06:41:52.337Z,22.40
2022-11-15T06:44:40.164Z,22.35
2022-11-15T06:47:26.478Z,23.27
2022-11-15T06:50:12.960Z,22.35
2022-11-15T06:53:04.028Z,23.23
2022-11-15T06:55:55.010Z,22.92
2022-11-15T06:58:42.360Z,22.55
2022-11-15T07:01:30.128Z,21.58
2022-11-15T07:04:19.602Z,22.73
2022-11-15T07:07:06.290Z,22.45
2022-11-15T07:09:52.499Z,23.33
2022-11-15T07:12:38.722Z,22.55
2022-11-15T07:15:27.162Z,23.13
2022-11-15T07:18:14.694Z,21.73
2022-11-15T07:21:03.848Z,21.17
2022-11-15T07:23:50.436Z,21.05
2022-11-15T07:26:36.774Z,21.48
2022-11-15T07:29:23.084Z,21.35
2022-11-15T07:32:09.313Z,21.38
2022-11-15T07:34:57.105Z,22.65
2022-11-15T07:37:43.374Z,22.35
2022-11-15T07:40:32.434Z,22.42
2022-11-15T07:43:19.123Z,22.50
2022-11-15T07:46:09.993Z,21.27
2022-11-15T07:48:56.337Z,22.00
2022-11-15T07:51:44.000Z,22.15
2022-11-15T07:54:30.310Z,22.58
2022-11-15T07:57:16.711Z,22.88
2022-11-15T08:00:03.185Z,22.60
2022-11-15T08:02:49.858Z,22.15
2022-11-15T08:05:37.187Z,22.02
2022-11-15T08:08:24.934Z,21.55
2022-11-15T08:11:11.275Z,23.00
2022-11-15T08:13:57.702Z,22.38
2022-11-15T08:16:44.272Z,22.65
2022-11-15T08:19:30.533Z,20.45
2022-11-15T08:22:16.831Z,21.55
2022-11-15T08:25:04.791Z,21.40
2022-11-15T08:27:53.521Z,21.33
2022-11-15T08:30:42.966Z,21.40
2022-11-15T08:33:30.273Z,21.50
2022-11-15T08:36:18.927Z,21.23
2022-11-15T08:39:05.984Z,20.75
2022-11-15T08:41:54.453Z,20.52
2022-11-15T08:44:41.007Z,20.40
2022-11-15T08:47:27.456Z,20.92
2022-11-15T08:50:14.151Z,19.77
2022-11-15T08:53:06.773Z,20.52
2022-11-15T08:55:53.217Z,18.70
2022-11-15T08:58:41.309Z,18.63
2022-11-15T09:01:28.193Z,18.67
2022-11-15T09:04:15.129Z,19.40
2022-11-15T09:07:01.408Z,18.35
2022-11-15T09:09:47.755Z,18.08
2022-11-15T09:12:34.414Z,18.33
2022-11-15T09:15:22.286Z,18.10
2022-11-15T09:18:08.805Z,17.65
2022-11-15T09:20:57.745Z,17.08
2022-11-15T09:23:44.441Z,17.30
2022-11-15T09:26:30.740Z,16.05
2022-11-15T09:29:17.272Z,15.93
2022-11-15T09:32:05.406Z,14.98
2022-11-15T09:34:52.048Z,16.88
2022-11-15T09:37:38.632Z,17.13
2022-11-15T09:40:27.261Z,15.90
2022-11-15T09:43:31.161Z,15.88
2022-11-15T09:46:23.651Z,14.50
2022-11-15T09:49:20.475Z,14.23
2022-11-15T09:51:56.870Z,14.23
2022-11-15T09:57:20.734Z,13.90
2022-11-15T10:00:23.773Z,14.40
2022-11-15T10:03:06.473Z,13.75
2022-11-15T10:05:40.599Z,13.93
2022-11-15T10:08:21.939Z,14.57
2022-11-15T10:11:09.641Z,13.50
2022-11-15T10:13:45.322Z,13.80
2022-11-15T10:16:27.945Z,13.13
2022-11-15T10:19:06.056Z,13.18
2022-11-15T10:21:47.427Z,13.23
2022-11-15T10:24:21.287Z,13.30
2022-11-15T10:26:49.860Z,13.30
2022-11-15T10:29:26.488Z,12.93
2022-11-15T10:31:55.423Z,12.77
2022-11-15T10:34:25.944Z,12.10
2022-11-15T10:36:59.264Z,11.88
2022-11-15T10:39:28.278Z,11.55
2022-11-15T10:41:56.634Z,11.32
2022-11-15T10:44:30.665Z,11.73
2022-11-15T10:47:25.170Z,12.02
2022-11-15T10:49:59.306Z,11.60
2022-11-15T10:52:30.592Z,11.38
2022-11-15T10:55:05.100Z,11.68
2022-11-15T10:57:38.433Z,11.40
2022-11-15T11:02:38.787Z,12.88
2022-11-15T11:05:26.673Z,11.63
2022-11-15T11:08:00.742Z,11.75
2022-11-15T11:10:51.440Z,12.35
2022-11-15T11:13:24.321Z,11.35
2022-11-15T11:15:59.122Z,12.18
2022-11-15T11:18:32.321Z,12.02
2022-11-15T11:21:04.970Z,12.13
2022-11-15T11:23:48.975Z,11.73
2022-11-15T11:26:34.823Z,12.30
2022-11-15T11:29:13.660Z,12.57
2022-11-15T11:31:52.067Z,12.20
2022-11-15T11:34:34.892Z,11.05
2022-11-15T11:37:12.183Z,11.83
2022-11-15T11:39:53.147Z,11.60
2022-11-15T11:42:42.175Z,10.93
2022-11-15T11:45:21.176Z,12.00
2022-11-15T11:47:53.333Z,11.32
2022-11-15T11:50:23.702Z,11.52
2022-11-15T11:53:03.625Z,12.20
2022-11-15T11:55:38.919Z,10.95
2022-11-15T11:58:15.039Z,10.50
2022-11-15T12:00:47.661Z,11.48
2022-11-15T12:03:24.328Z,11.13
2022-11-15T12:05:56.503Z,11.77
2022-11-15T12:08:35.579Z,10.48
2022-11-15T12:11:12.196Z,11.35
2022-11-15T12:13:40.971Z,10.73
2022-11-15T12:16:19.510Z,10.88
2022-11-15T12:18:51.307Z,10.60
2022-11-15T12:21:30.871Z,11.30
2022-11-15T12:24:05.360Z,11.27
2022-11-15T12:26:39.140Z,12.65
2022-11-15T12:29:14.142Z,12.32
2022-11-15T12:31:45.738Z,12.50
2022-11-15T12:34:36.191Z,11.98
2022-11-15T12:37:24.354Z,11.73
2022-11-15T12:40:21.725Z,11.35
2022-11-15T12:43:19.099Z,11.75
2022-11-15T12:45:47.969Z,10.95
2022-11-15T12:48:57.409Z,11.38
2022-11-15T12:52:07.985Z,12.00
2022-11-15T12:55:20.703Z,11.18
2022-11-15T12:57:48.667Z,10.10
2022-11-15T13:00:48.178Z,10.57
2022-11-15T13:03:26.303Z,10.45
2022-11-15T13:06:00.612Z,10.27
2022-11-15T13:08:50.292Z,10.60
2022-11-15T13:11:47.535Z,11.10
2022-11-15T13:14:41.402Z,11.50
2022-11-15T13:20:25.713Z,11.80
2022-11-15T13:23:03.123Z,11.85
2022-11-15T13:26:17.378Z,11.43
2022-11-15T13:28:49.461Z,12.35
2022-11-15T13:31:27.797Z,12.57
2022-11-15T13:33:59.134Z,12.70
2022-11-15T13:36:31.127Z,13.43
2022-11-15T13:39:01.618Z,14.25
2022-11-15T13:41:31.286Z,13.05
2022-11-15T13:44:00.766Z,12.73
2022-11-15T13:46:30.257Z,13.27
2022-11-15T13:49:00.088Z,13.43
2022-11-15T13:51:37.549Z,12.60
2022-11-15T13:54:15.275Z,12.63
2022-11-15T13:56:46.184Z,12.73
2022-11-15T13:59:20.556Z,13.60
2022-11-15T14:01:48.561Z,12.13
2022-11-15T14:04:21.409Z,12.57
2022-11-15T14:06:54.514Z,12.38
2022-11-15T14:09:41.214Z,12.20
2022-11-15T14:12:32.050Z,11.90
2022-11-15T14:15:01.165Z,11.60
2022-11-15T14:17:38.207Z,11.50
2022-11-15T14:20:22.845Z,12.05
2022-11-15T14:22:56.639Z,12.48
2022-11-15T14:25:26.451Z,11.63
2022-11-15T14:28:12.195Z,11.18
2022-11-15T14:30:41.458Z,11.13
2022-11-15T14:33:22.688Z,11.90
2022-11-15T14:35:51.306Z,11.13
2022-11-15T14:38:21.167Z,10.15
2022-11-15T14:40:49.605Z,10.75
2022-11-15T14:43:17.816Z,11.35
2022-11-15T14:45:45.698Z,11.27
2022-11-15T14:48:13.621Z,10.43
2022-11-15T14:50:41.713Z,11.23
2022-11-15T14:53:14.314Z,10.90
2022-11-15T14:55:44.099Z,11.03
2022-11-15T14:58:12.434Z,10.52
2022-11-15T15:00:42.481Z,10.98
2022-11-15T15:03:10.701Z,11.75
2022-11-15T15:05:40.328Z,11.10
2022-11-15T15:08:09.216Z,10.85
2022-11-15T15:10:40.508Z,11.13
2022-11-15T15:13:18.644Z,10.70
2022-11-15T15:15:46.871Z,11.43
2022-11-15T15:18:14.817Z,11.38
2022-11-15T15:20:44.283Z,11.27
2022-11-15T15:23:18.140Z,10.90
2022-11-15T15:25:47.287Z,11.52
2022-11-15T15:28:17.232Z,12.13
2022-11-15T15:30:45.245Z,10.95
2022-11-15T15:33:13.127Z,11.35
2022-11-15T15:35:41.300Z,12.05
2022-11-15T15:38:12.966Z,11.30
2022-11-15T15:40:41.600Z,12.02
2022-11-15T15:43:10.301Z,12.27
2022-11-15T15:45:41.256Z,12.13
2022-11-15T15:48:13.254Z,11.75
2022-11-15T15:50:41.342Z,12.23
2022-11-15T15:53:09.323Z,12.10
2022-11-15T15:55:37.527Z,11.80
2022-11-15T15:58:06.399Z,11.68
2022-11-15T16:00:34.904Z,13.82
2022-11-15T16:03:04.279Z,11.93
2022-11-15T16:05:32.211Z,11.02
2022-11-15T16:08:00.413Z,12.60
2022-11-15T16:10:30.094Z,11.82
2022-11-15T16:12:59.290Z,11.48
2022-11-15T16:15:30.493Z,12.07
2022-11-15T16:18:00.329Z,12.35
2022-11-15T16:20:40.283Z,12.88
2022-11-15T16:23:10.581Z,13.45
2022-11-15T16:25:46.483Z,12.50
2022-11-15T16:28:19.976Z,14.38
2022-11-15T16:30:51.121Z,13.55
2022-11-15T16:33:23.372Z,14.60
2022-11-15T16:35:52.943Z,13.90
2022-11-15T16:38:21.104Z,13.57
2022-11-15T16:40:49.190Z,15.40
2022-11-15T16:43:17.191Z,13.93
2022-11-15T16:45:45.611Z,14.63
2022-11-15T16:48:23.643Z,15.15
2022-11-15T16:50:57.564Z,14.60
2022-11-15T16:53:25.777Z,14.98
2022-11-15T16:55:54.024Z,15.73
2022-11-15T16:58:21.958Z,15.65
2022-11-15T17:00:52.486Z,15.38
2022-11-15T17:03:20.915Z,16.27
2022-11-15T17:05:48.877Z,17.27
2022-11-15T17:08:20.809Z,16.48
2022-11-15T17:10:48.905Z,16.80
2022-11-15T17:13:16.948Z,18.02
2022-11-15T17:15:44.937Z,17.48
2022-11-15T17:18:15.452Z,18.35
2022-11-15T17:20:43.919Z,18.30
2022-11-15T17:23:15.132Z,20.42
2022-11-15T17:25:45.697Z,19.17
2022-11-15T17:28:13.644Z,18.85
2022-11-15T17:30:44.666Z,19.38
2022-11-15T17:33:12.645Z,21.55
2022-11-15T17:35:40.627Z,23.65
2022-11-15T17:38:08.599Z,21.73
2022-11-15T17:40:36.548Z,23.00
2022-11-15T17:43:06.845Z,22.85
2022-11-15T17:45:35.186Z,23.30
2022-11-15T17:48:03.175Z,24.58
2022-11-15T17:50:31.126Z,24.00
2022-11-15T17:53:00.370Z,23.15
2022-11-15T17:55:28.422Z,24.23
2022-11-15T17:57:56.384Z,24.02
2022-11-15T18:00:25.968Z,25.02
2022-11-15T18:02:53.911Z,22.83
2022-11-15T18:05:21.979Z,25.98
2022-11-15T18:07:49.945Z,23.80
2022-11-15T18:10:18.149Z,23.38
2022-11-15T18:12:46.134Z,23.55
2022-11-15T18:15:14.066Z,24.55
2022-11-15T18:17:43.334Z,23.60
2022-11-15T18:20:11.946Z,23.67
2022-11-15T18:22:40.098Z,23.98
2022-11-15T18:25:08.915Z,25.38
2022-11-15T18:27:38.786Z,24.75
2022-11-15T18:30:07.816Z,24.73
2022-11-15T18:32:35.738Z,24.73
2022-11-15T18:35:06.528Z,23.17
2022-11-15T18:37:34.700Z,23.80
2022-11-15T18:40:02.665Z,24.23
2022-11-15T18:42:33.019Z,24.42
2022-11-15T18:45:01.829Z,25.17
2022-11-15T18:47:31.626Z,24.88
2022-11-15T18:49:59.724Z,23.58
2022-11-15T18:52:29.056Z,24.08
2022-11-15T18:54:56.979Z,24.15
2022-11-15T18:57:24.914Z,24.63
2022-11-15T18:59:52.874Z,24.33
2022-11-15T19:02:20.798Z,23.00
2022-11-15T19:04:48.706Z,25.17
2022-11-15T19:07:16.652Z,23.05
2022-11-15T19:09:46.692Z,23.15
2022-11-15T19:12:14.663Z,25.52
2022-11-15T19:14:42.630Z,24.58
2022-11-15T19:17:10.626Z,23.00
2022-11-15T19:19:38.574Z,24.75
2022-11-15T19:22:06.468Z,22.95
2022-11-15T19:24:34.413Z,23.40
2022-11-15T19:27:03.741Z,24.17
2022-11-15T19:29:31.639Z,23.80
2022-11-15T19:31:59.508Z,22.50
2022-11-15T19:34:27.468Z,22.55
2022-11-15T19:36:55.433Z,22.70
2022-11-15T19:39:46.610Z,24.13
2022-11-15T19:42:30.091Z,18.63
2022-11-15T19:44:58.049Z,23.70
2022-11-15T19:47:26.864Z,23.23
2022-11-15T19:49:55.214Z,26.50
2022-11-15T19:52:24.351Z,26.65
2022-11-15T19:54:52.366Z,26.52
2022-11-15T19:57:21.805Z,26.25
2022-11-15T19:59:49.855Z,26.85
2022-11-15T20:02:17.757Z,25.23
2022-11-15T20:04:45.746Z,25.60
2022-11-15T20:07:13.741Z,25.08
2022-11-15T20:09:41.846Z,24.90
2022-11-15T20:12:09.784Z,26.85
2022-11-15T20:14:39.536Z,24.65
2022-11-15T20:17:07.567Z,26.10
2022-11-15T20:19:35.509Z,24.88
2022-11-15T20:22:03.544Z,25.23
2022-11-15T20:24:31.507Z,25.23
2022-11-15T20:26:59.488Z,26.73
2022-11-15T20:29:27.428Z,24.95
2022-11-15T20:31:56.764Z,25.35
2022-11-15T20:34:24.814Z,25.85
2022-11-15T20:36:52.705Z,23.85
2022-11-15T20:39:20.614Z,24.30
2022-11-15T20:41:48.580Z,24.55
2022-11-15T20:44:16.486Z,23.92
2022-11-15T20:46:44.452Z,24.08
2022-11-15T20:49:13.784Z,23.25
2022-11-15T20:51:41.737Z,26.20
2022-11-15T20:54:10.162Z,24.85
2022-11-15T20:56:38.149Z,23.60
2022-11-15T20:59:06.183Z,24.50
2022-11-15T21:01:34.254Z,22.30
2022-11-15T21:04:02.319Z,24.10
2022-11-15T21:06:31.677Z,24.38
2022-11-15T21:09:16.976Z,23.90
2022-11-15T21:12:02.442Z,24.50
2022-11-15T21:14:30.699Z,23.92
2022-11-15T21:16:59.532Z,23.60
2022-11-15T21:19:32.635Z,24.08
2022-11-15T21:22:06.553Z,24.17
2022-11-15T21:24:34.565Z,25.88
2022-11-15T21:27:02.505Z,23.88
2022-11-15T21:29:37.423Z,24.17
2022-11-15T21:32:07.314Z,27.40
2022-11-15T21:34:35.508Z,23.88
2022-11-15T21:37:05.167Z,24.92
2022-11-15T21:39:33.083Z,22.15
2022-11-15T21:42:01.055Z,24.13
2022-11-15T21:44:30.100Z,24.15
2022-11-15T21:46:58.073Z,23.60
2022-11-15T21:49:26.141Z,24.17
2022-11-15T21:51:54.100Z,23.52
2022-11-15T21:54:23.452Z,23.50
2022-11-15T21:56:51.526Z,23.27
2022-11-15T21:59:19.739Z,22.70
2022-11-15T22:02:04.932Z,21.98
2022-11-15T22:04:32.869Z,23.60
2022-11-15T22:07:00.859Z,22.40
2022-11-15T22:09:30.275Z,22.85
2022-11-15T22:11:58.163Z,22.15
2022-11-15T22:14:26.123Z,23.88
2022-11-15T22:16:54.085Z,23.10
2022-11-15T22:19:22.619Z,23.45
2022-11-15T22:21:50.891Z,24.45
2022-11-15T22:24:19.219Z,23.27
2022-11-15T22:26:48.766Z,22.77
2022-11-15T22:29:16.899Z,22.80
2022-11-15T22:31:45.026Z,23.75
2022-11-15T22:34:13.151Z,23.50
2022-11-15T22:37:13.052Z,24.77
2022-11-15T22:39:33.417Z,23.98
2022-11-15T22:42:02.922Z,22.38
2022-11-15T22:44:30.999Z,23.83
2022-11-15T22:46:59.205Z,23.75
2022-11-15T22:49:27.439Z,26.40
2022-11-15T22:51:55.565Z,25.90
2022-11-15T22:54:23.688Z,25.30
2022-11-15T22:56:51.816Z,25.55
2022-11-15T22:59:21.248Z,26.98
2022-11-15T23:01:50.946Z,26.65
2022-11-15T23:04:19.044Z,26.17
2022-11-15T23:06:47.457Z,26.23
2022-11-15T23:09:15.555Z,28.33
2022-11-15T23:12:01.418Z,25.27
2022-11-15T23:14:31.024Z,27.08
2022-11-15T23:16:59.219Z,29.17
2022-11-15T23:19:27.418Z,27.15
2022-11-15T23:22:12.887Z,26.10
2022-11-15T23:24:41.006Z,25.23
2022-11-15T23:27:09.485Z,26.85
2022-11-15T23:29:52.859Z,26.45
2022-11-15T23:32:38.587Z,26.33
2022-11-15T23:35:07.403Z,25.77
2022-11-15T23:37:35.503Z,26.63
2022-11-15T23:40:03.638Z,26.45
2022-11-15T23:42:31.832Z,26.92
2022-11-15T23:45:01.378Z,24.65
2022-11-15T23:47:29.567Z,27.77
2022-11-15T23:49:57.832Z,25.25
2022-11-15T23:52:26.041Z,26.17
2022-11-15T23:54:54.142Z,24.65
2022-11-15T23:57:23.282Z,26.63
2022-11-15T23:59:51.370Z,24.65
